KNEL/NEL METAR and TAF weather

Enter ICAO airport designator
Station Type Date Time Source
KNEL METAR 2018/12/10 08:00 UTC NOAA

KNEL 100800Z AUTO 00000KT CLR M04/M07 A3008 RMK AO2 SLP185 T10441072 PNO $


Station Type Date Time Source
KNEL Decoded METAR 2018/12/10 08:00 UTC NOAA

Lakehurst Naval Air Station, NJ, United States (KNEL) 40-02N 074-19W 24M
Dec 10, 2018 - 03:00 AM EST / 2018.12.10 0800 UTC
Wind: Calm:0
Sky conditions: clear
Temperature: 24.1 F (-4.4 C)
Dew Point: 19.0 F (-7.2 C)
Relative Humidity: 80%
Pressure (altimeter): 30.08 in. Hg (1018 hPa)
ob: KNEL 100800Z AUTO 00000KT CLR M04/M07 A3008 RMK AO2 SLP185 T10441072 PNO
cycle: 8

Station Type Date Time Source
KNEL TAF UTC NOAA

Error!


Example: see airport list